Tiempo atmosférico en la estación meteorológica de Palacios De La Sierra, Burgos (1080 m.)



Fecha
DESCASC
Temp. máxima en grados centígrados (hora)
DESCASC
Temp. mínima en grados centígrados (hora)
DESCASC
Temp. media en grados centígrados
DESCASC
Racha de viento máxima en m/sg (hora)
DESCASC
Velocidad máxima media en intervalos de 10 minutos(hora)
DESCASC
Precipitaciones diarias en mm
DESCASC
Precipitaciones de 00:00 a 06:00 en mm
DESCASC
Precipitaciones de 06:00 a 12:00 en mm
DESCASC
Precipitaciones de 12:00 a 18:00 en mm
DESCASC
Precipitaciones de 18:00 a 24:00 en mm
DESCASC
03-12-2020 5 (13:00) -6.2 (08:30) -0.6 -- (--) -- (--) 0 0 0 0 0
02-12-2020 6.2 (13:00) -2 (23:59) 2.1 -- (--) -- (--) 0 0 0 0 0
01-12-2020 12 (13:00) -5.9 (07:00) 3 13.06 (21:30) 7.22 (21:50) 0 0 0 0 0
30-11-2020 13.3 (14:20) -1.9 (-00:0) 5.7 5.56 (22:40) 3.89 (22:40) 0 0 0 0 0
29-11-2020 12 (15:50) 0.7 (00:00) 6.3 6.94 (13:40) 3.61 (10:50) 0 0 0 0 0
28-11-2020 11.8 (13:10) 2.9 (00:00) 7.4 8.33 (17:00) 4.17 (17:10) 0 0 0 0 0
27-11-2020 11.5 (13:20) 6.6 (00:00) 9 13.61 (08:30) 7.22 (14:00) 0 0 0 0 0
26-11-2020 -- (--) -- (--) -- -- (--) -- (--) -- -- -- -- 0
25-11-2020 -- (--) -- (--) -- -- (--) -- (--) -- -- -- -- --
24-11-2020 -- (--) -- (--) -- -- (--) -- (--) -- -- -- -- --
23-11-2020 -- (--) -- (--) -- -- (--) -- (--) -- 0 0 -- --
22-11-2020 -- (--) -- (--) -- -- (--) -- (--) -- -- -- -- --
21-11-2020 -- (--) -- (--) -- -- (--) -- (--) -- 0 0 0 --
20-11-2020 13.9 (14:50) -3.5 (-00:0) 5.2 13.89 (23:59) 8.06 (23:59) 0 0 0 0 0
19-11-2020 17.9 (13:50) -0.7 (-00:0) 8.6 8.61 (16:50) 4.72 (22:00) 0 0 0 0 0
18-11-2020 19.3 (15:40) 0.7 (00:00) 10 5.56 (01:10) 3.33 (02:00) 0 0 0 0 0
17-11-2020 18.7 (15:40) -0.4 (00:00) 9.2 5.83 (21:30) 3.61 (23:50) 0 0 0 0 0
16-11-2020 14.7 (14:20) 2.8 (00:00) 8.7 7.5 (01:10) 4.17 (00:30) 0.2 0.2 0 0 0
15-11-2020 13.7 (11:50) 7.5 (00:00) 10.6 11.11 (14:40) 5.28 (12:00) 4.2 0 0 1.6 2.6
14-11-2020 12.9 (15:10) 0.5 (00:00) 6.7 5.83 (13:00) 3.61 (05:00) 0 0 0 0 0
13-11-2020 15.9 (14:40) 3.2 (00:00) 9.5 5 (00:30) 3.61 (00:30) 0 0 0 0 0
12-11-2020 17.3 (16:30) 1.7 (00:00) 9.5 6.11 (21:50) 3.06 (21:30) 0 0 0 0 0
11-11-2020 15.2 (15:30) -0.6 (-00:0) 7.3 7.5 (13:10) 3.89 (23:30) 0 0 0 0 0
10-11-2020 14.6 (15:40) 0.9 (00:00) 7.8 6.39 (17:30) 3.61 (12:50) 0 0 0 0 0
09-11-2020 11.8 (13:10) 1.7 (00:00) 6.8 9.17 (13:20) 4.72 (13:20) 0.6 0 0 0.6 0
08-11-2020 13.8 (15:50) 4.1 (00:00) 9 7.78 (14:10) 4.17 (11:50) 0 0 0 0 0
07-11-2020 12 (00:00) 6.6 (00:00) 9.3 8.89 (00:30) 4.72 (15:10) 22 15 1.4 5.6 0
06-11-2020 14.1 (15:50) 8.6 (00:00) 11.4 19.17 (11:50) 10.28 (11:50) 0 0 0 0 0
05-11-2020 12.6 (13:20) 7.1 (00:00) 9.9 16.39 (04:10) 9.17 (00:30) 3.2 0 0 0 3.2

Gráficas

Temp. máximas Temp. mínimas Temp. medias Precipitaciones Rachas de viento máximas Velocidades máximas media en intervalos de 10 minutos

Datos horarios

Fecha y hora oficial Temperatura (ºC) Velocidad del viento (km/h) Dirección del viento Racha (km/h) Dirección de racha Precipitación (mm) Presión (hPa) Tendencia (hPa) Humedad (%)
2020-12-04 23:00:00 -0.5 14 Oeste 26 Oeste 0 874.2 -- 79
2020-12-04 22:00:00 0 14 Oeste 31 Oeste 0 873.6 -- 78
2020-12-04 21:00:00 0.4 13 Oeste 30 Oeste 0 873.2 -- 77
2020-12-04 20:00:00 0.5 17 Oeste 34 Oeste 0 872.9 -- 77
2020-12-04 19:00:00 0.7 13 Oeste 29 Oeste 0 872.5 -- 78
2020-12-04 18:00:00 0.9 12 Oeste 26 Oeste 0 871.9 -- 75
2020-12-04 17:00:00 1.2 10 Oeste 30 Oeste 0 871.9 -- 73
2020-12-04 16:00:00 1.1 14 Oeste 31 Oeste 0 871.8 -- 73
2020-12-04 15:00:00 1.2 16 Oeste 34 Oeste 0 872.2 -- 71
2020-12-04 14:00:00 1.4 -- -- -- -- 0 872.2 -- 67
2020-12-04 13:00:00 1.2 -- -- -- -- 0 872.5 -- 72
2020-12-04 12:00:00 0.9 16 Oeste -- -- 0 873.1 -- 74
2020-12-04 11:00:00 0.3 -- -- -- -- 0 873.5 -- 74
2020-12-04 10:00:00 0.2 17 Oeste -- -- 0 873.3 -- 76
2020-12-04 09:00:00 -0.1 15 Oeste -- -- 0 873 -- 83
2020-12-04 08:00:00 -0.1 -- -- -- -- 0 873.2 -- 80
2020-12-04 07:00:00 0.4 -- -- -- -- 0 873 -- 81
2020-12-04 06:00:00 1.1 18 Oeste -- -- 0 872.6 -- 81
2020-12-04 05:00:00 1.5 17 Oeste 37 Oeste 0 873.1 -- 81
2020-12-04 04:00:00 1.9 -- -- -- -- 0.2 873.4 -- 81
2020-12-04 03:00:00 2.2 -- -- -- -- 5.4 873.2 -- 87
2020-12-04 02:00:00 3.3 16 Oeste -- -- 2.2 873.9 -- 87
2020-12-04 01:00:00 3.8 -- -- -- -- 0.6 875 -- 85
2020-12-04 00:00:00 4.2 -- -- -- -- 0 876.5 -- 77
2020-12-03 23:00:00 4.2 -- -- -- -- 0 877.6 -- 74
2020-12-03 22:00:00 3.9 -- -- -- -- 0 879.2 -- 76
2020-12-03 21:00:00 3.6 -- -- -- -- 0 880.2 -- 72
2020-12-03 20:00:00 3.5 18 Oeste -- -- 0 881.1 -- 71
2020-12-03 19:00:00 3.5 13 Oeste 26 Sudoeste 0 882 -- 63
2020-12-03 18:00:00 3 5 Noroeste 17 Oeste 0 882.9 -- 65
2020-12-03 17:00:00 4.4 4 Oeste 23 Oeste 0 883.5 -- 63
2020-12-03 16:00:00 4.5 9 Oeste 17 Oeste 0 883.9 -- 65
2020-12-03 15:00:00 4.6 5 Noroeste 22 Oeste 0 885 -- 64
2020-12-03 14:00:00 4.5 10 Noroeste 49 Noroeste 0 886.7 -- 66
2020-12-03 13:00:00 5 8 Noroeste 19 Oeste 0 887.6 -- 63
2020-12-03 12:00:00 2.8 10 Oeste 18 Oeste 0 889 -- 73
2020-12-03 11:00:00 0.9 6 Noroeste 18 Oeste 0 889.8 -- 82
2020-12-03 10:00:00 -2.6 0 Calma 4 Norte 0 890.5 -- 90
2020-12-03 09:00:00 -5.8 0 Calma 5 Oeste 0 891.1 -- 91
2020-12-03 08:00:00 -5.7 2 Sur 17 Este 0 891.4 -- 90
2020-12-03 07:00:00 -5.2 2 Este 9 Sur 0 891.3 -- 88
2020-12-03 06:00:00 -4.7 7 Sudoeste 17 Sudoeste 0 891.9 -- 84
2020-12-03 05:00:00 -5 3 Oeste 14 Nordeste 0 892.4 -- 85
2020-12-03 04:00:00 -4.5 3 Sur 11 Este 0 892.7 -- 86
2020-12-03 03:00:00 -4.6 3 Noroeste 10 Sur 0 893.4 -- 87
2020-12-03 02:00:00 -4.1 4 Nordeste 9 Este 0 893.7 -- 83
2020-12-03 01:00:00 -3 3 Norte 17 Sur 0 893.8 -- 79
2020-12-03 00:00:00 -1.6 11 Sur 21 Sudoeste 0 893.9 -- 77
2020-12-02 23:00:00 -1.7 11 Sur 20 Sudeste 0 894 -- 76
2020-12-02 22:00:00 -0.9 13 Sur 19 Sur 0 894.5 -- 77
2020-12-02 21:00:00 0.5 11 Sur -- -- 0 894.4 -- 72
2020-12-02 20:00:00 1.3 17 Oeste 33 Noroeste 0 894.3 -- 69
2020-12-02 19:00:00 1.9 15 Noroeste 26 Noroeste 0 894.3 -- 67
2020-12-02 18:00:00 2.2 13 Oeste 30 Norte 0 894.4 -- 66
2020-12-02 17:00:00 3.2 15 Noroeste 31 Norte 0 894.3 -- 62
2020-12-02 16:00:00 3.8 15 Norte -- -- 0 894.4 -- 59
2020-12-02 15:00:00 4.9 17 Norte -- -- 0 894.1 -- 53
2020-12-02 14:00:00 5.1 14 Norte 31 Noroeste 0 894.3 -- 55
2020-12-02 13:00:00 6.1 14 Noroeste -- -- 0 894.1 -- 50
2020-12-02 12:00:00 5.4 18 Norte -- -- 0 894.5 -- 48
2020-12-02 11:00:00 3.8 19 Noroeste 39 Noroeste 0 894.6 -- 60
2020-12-02 10:00:00 2.3 13 Noroeste 36 Noroeste 0 894.6 -- 68
2020-12-02 09:00:00 1.7 12 Noroeste 31 Norte 0 894.4 -- 61
2020-12-02 08:00:00 1.8 5 Noroeste 27 Nordeste 0 894.5 -- 62
2020-12-02 07:00:00 2.3 9 Noroeste -- -- 0 894.3 -- 64
2020-12-02 06:00:00 3.4 -- -- -- -- 0 894.1 -- 57
2020-12-02 05:00:00 4.2 8 Noroeste -- -- 0 894.2 -- 57
2020-12-02 04:00:00 5.1 -- -- -- -- 0 894.2 -- 64
2020-12-02 03:00:00 4.4 18 Noroeste 36 Noroeste 0 894.2 -- 89
2020-12-02 02:00:00 4.8 17 Oeste 30 Oeste 0 894.6 -- 84
2020-12-02 01:00:00 5.1 15 Noroeste -- -- 0 895.1 -- 78
2020-12-02 00:00:00 5.5 15 Noroeste -- -- 0 895.5 -- 72
2020-12-01 23:00:00 6 15 Noroeste 40 Oeste 0 896.1 -- 63
2020-12-01 22:00:00 6.5 24 Noroeste 47 Noroeste 0 896.4 -- 59
2020-12-01 21:00:00 7.3 23 Noroeste 40 Noroeste 0 896.7 -- 49
2020-12-01 20:00:00 7.4 22 Oeste 38 Noroeste 0 897 -- 42
2020-12-01 19:00:00 7.7 19 Oeste 37 Oeste 0 897.4 -- 44
2020-12-01 18:00:00 8.5 16 Noroeste 36 Oeste 0 897.5 -- 47
2020-12-01 17:00:00 9.5 16 Noroeste 30 Noroeste 0 897.3 -- 46
2020-12-01 16:00:00 11.4 3 Sudoeste 24 Nordeste 0 897.6 -- 44
2020-12-01 15:00:00 11.4 10 Noroeste 33 Noroeste 0 898.3 -- 41
2020-12-01 14:00:00 11.1 13 Noroeste 31 Noroeste 0 898.7 -- 33
2020-12-01 13:00:00 12 13 Noroeste 25 Noroeste 0 899.5 -- 34
2020-12-01 12:00:00 8.3 3 Oeste 13 Nordeste 0 900.3 -- 57
2020-12-01 11:00:00 3.3 0 Calma 8 Noroeste 0 900.6 -- 73
2020-12-01 10:00:00 -0.9 3 Oeste 12 Oeste 0 900.9 -- 84
2020-12-01 09:00:00 -3.8 5 Noroeste 12 Sudoeste 0 900.5 -- 90
2020-12-01 08:00:00 -5.3 3 Oeste 11 Sudoeste 0 900.1 -- 90
2020-12-01 07:00:00 -5.7 2 Sudoeste 10 Sur 0 900.1 -- 91
2020-12-01 06:00:00 -5.3 3 Sudeste 15 Este 0 900.2 -- 90
2020-12-01 05:00:00 -5 3 Norte 7 Sudeste 0 900.1 -- 90
2020-12-01 04:00:00 -4.4 3 Este 14 Este 0 900.7 -- 91
2020-12-01 03:00:00 -3.4 0 Calma 15 Sur 0 900.9 -- 91
2020-12-01 02:00:00 -1.4 14 Sur 23 Sur 0 901.2 -- 92
2020-12-01 01:00:00 -1.3 5 Sudeste 16 Sur 0 901.6 -- 92
2020-12-01 00:00:00 -0.5 4 Sudeste 11 Sur 0 901.6 -- 92
2020-11-30 23:00:00 0.7 5 Sudeste 20 Sur 0 901.3 -- 91
2020-11-30 22:00:00 1.1 2 Sudeste 13 Sur 0 901.2 -- 87
2020-11-30 21:00:00 2.8 7 Sur 18 Este 0 900.9 -- 87
2020-11-30 20:00:00 4.2 0 Calma 10 Sur 0 900.8 -- 84
2020-11-30 19:00:00 5.6 5 Sudeste 11 Sur 0 900.4 -- 76
2020-11-30 18:00:00 8.2 4 Sudoeste 8 Sur 0 899.9 -- 67
2020-11-30 17:00:00 10.6 5 Noroeste 13 Noroeste 0 899.9 -- 60
2020-11-30 16:00:00 11.8 7 Oeste 14 Oeste 0 899.6 -- 58
2020-11-30 15:00:00 12.4 6 Oeste 15 Noroeste 0 899.5 -- 49
2020-11-30 14:00:00 13 8 Noroeste 13 Noroeste 0 899.7 -- 55
2020-11-30 13:00:00 10.5 2 Nordeste 5 Nordeste 0 899.8 -- 63
2020-11-30 12:00:00 6.4 2 Noroeste 16 Sur 0 900.3 -- 79
2020-11-30 11:00:00 3.1 4 Sudeste 17 Sudeste 0 900 -- 88
2020-11-30 10:00:00 -0.3 0 Calma 14 Sur 0 900.3 -- 91
2020-11-30 09:00:00 -1.1 3 Sudeste 15 Sur 0 899.6 -- 92
2020-11-30 08:00:00 -1.5 6 Sudeste 13 Sur 0 899 -- 92
2020-11-30 07:00:00 -1.6 5 Sudeste 12 Sur 0 898.8 -- 91
2020-11-30 06:00:00 -1 5 Sudeste 15 Sur 0 898.5 -- 92
2020-11-30 05:00:00 -1.4 10 Sur 15 Sur 0 898.2 -- 92
2020-11-30 04:00:00 -0.9 7 Sur 16 Sur 0 898 -- 93
2020-11-30 03:00:00 -0.7 10 Sur 15 Este 0 898.1 -- 92
2020-11-30 02:00:00 -0.3 8 Sur 12 Sur 0 897.7 -- 92
2020-11-30 01:00:00 -0.1 7 Sur 14 Sur 0 897.6 -- 92
2020-11-30 00:00:00 0.8 3 Sudeste 13 Sur 0 897.5 -- 91
2020-11-29 23:00:00 1.2 4 Sudeste 16 Sur 0 897.3 -- 91
2020-11-29 22:00:00 1.8 3 Sudeste 13 Sur 0 896.9 -- 89
2020-11-29 21:00:00 2.6 4 Sudeste 14 Sur 0 896.5 -- 86
2020-11-29 20:00:00 4.3 3 Sudeste 9 Sur 0 895.8 -- 83
2020-11-29 19:00:00 5.9 5 Sudeste 10 Sur 0 895.4 -- 78
2020-11-29 18:00:00 8.2 8 Sur 13 Sudeste 0 894.8 -- 68
2020-11-29 17:00:00 10.3 5 Este 20 Este 0 894.3 -- 60
2020-11-29 16:00:00 11.9 7 Este 13 Este 0 893.6 -- 54
2020-11-29 15:00:00 11.3 8 Este 18 Nordeste 0 893.5 -- 56
2020-11-29 14:00:00 11.4 7 Sudeste 25 Sudoeste 0 893.6 -- 56
2020-11-29 13:00:00 10.7 13 Este 23 Sudeste 0 893.5 -- 58
2020-11-29 12:00:00 10.1 8 Sudeste 20 Este 0 894.1 -- 61
2020-11-29 11:00:00 8 9 Sudeste 22 Este 0 893.8 -- 73
2020-11-29 10:00:00 6 10 Sudeste 21 Sudeste 0 893.1 -- 81
2020-11-29 09:00:00 4.3 8 Sur 15 Sudeste 0 892.5 -- 90
2020-11-29 08:00:00 5.1 8 Sudeste 17 Sudeste 0 891.9 -- 87
2020-11-29 07:00:00 4.9 8 Sudeste 14 Sudeste 0 891.3 -- 91
2020-11-29 06:00:00 3.2 0 Calma 6 Sudeste 0 890.7 -- 89
2020-11-29 05:00:00 3.1 0 Calma 14 Este 0 890.6 -- 90
2020-11-29 04:00:00 3.2 9 Sudeste 23 Este 0 890.3 -- 91
2020-11-29 03:00:00 4.1 8 Sudeste 13 Sudeste 0 889.9 -- 88
2020-11-29 02:00:00 4.9 5 Sudeste 10 Este 0 889.5 -- 85
2020-11-29 01:00:00 6 4 Sudeste 18 Este 0 889.5 -- 80
2020-11-29 00:00:00 7 11 Sudeste 19 Sudeste 0 889.4 -- 78
2020-11-28 23:00:00 7.4 11 Sudeste 16 Este 0 888.8 -- 75
2020-11-28 22:00:00 7.1 6 Sudeste 10 Sur 0 888.3 -- 74
2020-11-28 21:00:00 7.1 7 Sur 9 Sudeste 0 888 -- 73
2020-11-28 20:00:00 7.1 6 Sudeste 15 Sudeste 0 887.4 -- 74
2020-11-28 19:00:00 6.8 10 Sudeste 15 Sudeste 0 886.7 -- 74
2020-11-28 18:00:00 8.2 8 Sudeste 28 Sudeste 0 886 -- 70
2020-11-28 17:00:00 9.2 15 Sudeste 30 Este 0 885.5 -- 65
2020-11-28 16:00:00 10.5 10 Sudeste 25 Sur 0 884.8 -- 61
2020-11-28 15:00:00 11.3 13 Sudeste 26 Sudoeste 0 884.3 -- 55
2020-11-28 14:00:00 10.5 9 Sudeste 20 Sudeste 0 884.2 -- 61
2020-11-28 13:00:00 11.7 9 Sur 19 Sur 0 884.2 -- 60
2020-11-28 12:00:00 9.5 9 Este 22 Sudeste 0 884.8 -- 67
2020-11-28 11:00:00 7.9 9 Este 16 Este 0 885.3 -- 75
2020-11-28 10:00:00 4.9 0 Calma 4 Noroeste 0 885.6 -- 84
2020-11-28 09:00:00 4.1 0 Calma 14 Este 0 885.3 -- 87
2020-11-28 08:00:00 3.8 0 Calma 4 Nordeste 0 884.8 -- 85
2020-11-28 07:00:00 3.6 0 Calma 6 Noroeste 0 884.4 -- 86
2020-11-28 06:00:00 3.4 5 Norte 10 Sur 0 884.6 -- 85
2020-11-28 05:00:00 2.9 5 Norte 23 Sudeste 0 884.6 -- 83
2020-11-28 04:00:00 5.3 9 Sudeste 16 Sudeste 0 884.8 -- 80
2020-11-28 03:00:00 3.6 2 Oeste 8 Norte 0 885.4 -- 82
2020-11-28 02:00:00 4.3 3 Noroeste 8 Noroeste 0 885.6 -- 80
2020-11-28 01:00:00 6.2 3 Sudeste 24 Sudeste 0 886 -- 73
2020-11-28 00:00:00 6.8 11 Sudeste 29 Sudeste 0 886.3 -- 73
2020-11-27 23:00:00 7.3 13 Sudeste 24 Este 0 886.7 -- 74
2020-11-27 22:00:00 7.9 14 Sudeste 30 Sudeste 0 886.6 -- 71
2020-11-27 21:00:00 7.9 19 Sudeste 33 Sudeste 0 887.1 -- 72
2020-11-27 20:00:00 7.9 18 Sudeste 27 Sudeste 0 887.4 -- 71
2020-11-27 19:00:00 7.4 8 Este 27 Este 0 887.2 -- 78
2020-11-27 18:00:00 8.1 10 Sudeste 27 Este 0 887.2 -- 75
2020-11-27 17:00:00 8.2 11 Sudeste 37 Este 0 887.1 -- 74
2020-11-27 16:00:00 10 13 Este 33 Este 0 887.4 -- 63
2020-11-27 15:00:00 10.2 24 Este 48 Este 0 887.8 -- 64
2020-11-27 14:00:00 10.6 26 Sudeste 44 Sudeste 0 888.5 -- 62
2020-11-27 13:00:00 10.4 22 Este 43 Este 0 888.9 -- 64
2020-11-27 12:00:00 9.8 16 Este 30 Este 0 890.1 -- 68
2020-11-27 11:00:00 8.5 19 Este 49 Sudeste 0 890.6 -- 73
2020-11-27 10:00:00 8.5 21 Este 39 Este 0 890.8 -- 69
2020-11-27 09:00:00 8.3 16 Sudeste 49 Este 0 890.7 -- 72
2020-11-27 08:00:00 8.5 21 Sudeste 37 Sudeste 0 890.1 -- 70
2020-11-27 07:00:00 8.5 16 Sudeste 39 Este 0 889.9 -- 75
2020-11-27 06:00:00 8.3 21 Sudeste 33 Este 0 889.9 -- 74
2020-11-27 05:00:00 8.1 21 Este 41 Este 0 890.1 -- 75
2020-11-27 04:00:00 8.2 18 Este 38 Este 0 890.2 -- 75
2020-11-27 03:00:00 8.4 15 Sudeste 37 Sudeste 0 891 -- 75
2020-11-27 02:00:00 8.6 15 Sudeste 26 Sudeste 0 891.3 -- 77
2020-11-27 01:00:00 8 12 Sudeste 22 Este 0 891.7 -- 81
2020-11-27 00:00:00 8.2 14 Sudeste 33 Sudeste 0 891.8 -- 78
2020-11-26 23:00:00 7.9 19 Sudeste 41 Este 0 891.6 -- 78
2020-11-26 22:00:00 8 17 Sudeste 49 Este 0 891.2 -- 77
2020-11-26 21:00:00 8.3 20 Sudeste 51 Sudeste 0 891 -- 76
2020-11-26 20:00:00 8.2 14 Sudeste 39 Este 0 890.9 -- 79
2020-11-26 19:00:00 8.2 14 Sudeste 42 Este 0 890.4 -- 76
2020-11-26 18:00:00 8.5 21 Este 39 Este 0 890.4 -- 72
2020-11-26 17:00:00 8.7 17 Este 51 Sudeste 0 890 -- 70
2020-11-26 16:00:00 9.4 25 Este 49 Este 0 889.6 -- 68
2020-11-26 15:00:00 10.1 23 Sudeste 43 Sudeste 0 889.9 -- 66
2020-11-26 14:00:00 10.4 21 Sudeste 41 Sudeste 0 889.6 -- 66
2020-11-26 13:00:00 9.3 15 Este -- -- -- 890.5 -- 71
2020-11-26 12:00:00 -- -- -- -- -- -- -- -- --
2020-11-26 11:00:00 -- -- -- -- -- -- -- -- --
2020-11-26 10:00:00 -- -- -- -- -- -- -- -- --
2020-11-26 09:00:00 -- -- -- -- -- -- -- -- --
2020-11-26 08:00:00 -- -- -- -- -- -- -- -- --
2020-11-26 07:00:00 -- -- -- -- -- -- -- -- --
2020-11-26 06:00:00 -- -- -- -- -- -- -- -- --
2020-11-26 05:00:00 -- -- -- -- -- -- -- -- --
2020-11-26 04:00:00 -- -- -- -- -- -- -- -- --
2020-11-26 03:00:00 -- -- -- -- -- -- -- -- --
2020-11-26 02:00:00 -- -- -- -- -- -- -- -- --
2020-11-26 01:00:00 -- -- -- -- -- -- -- -- --
2020-11-26 00:00:00 -- -- -- -- -- -- -- -- --
2020-11-25 23:00:00 -- -- -- -- -- -- -- -- --
2020-11-25 22:00:00 -- -- -- -- -- -- -- -- --
2020-11-25 21:00:00 -- -- -- -- -- -- -- -- --
2020-11-25 20:00:00 -- -- -- -- -- -- -- -- --
2020-11-25 19:00:00 -- -- -- -- -- -- -- -- --
2020-11-25 18:00:00 -- -- -- -- -- -- -- -- --
2020-11-25 17:00:00 -- -- -- -- -- -- -- -- --
2020-11-25 16:00:00 -- -- -- -- -- -- -- -- --
2020-11-25 15:00:00 -- -- -- -- -- -- -- -- --
2020-11-25 14:00:00 -- -- -- -- -- -- -- -- --
2020-11-25 13:00:00 -- -- -- -- -- -- -- -- --
2020-11-25 12:00:00 -- -- -- -- -- -- -- -- --
2020-11-25 11:00:00 -- -- -- -- -- -- -- -- --
2020-11-25 10:00:00 -- -- -- -- -- -- -- -- --
2020-11-25 09:00:00 -- -- -- -- -- -- -- -- --
2020-11-25 08:00:00 -- -- -- -- -- -- -- -- --
2020-11-25 07:00:00 -- -- -- -- -- -- -- -- --
2020-11-25 06:00:00 -- -- -- -- -- -- -- -- --
2020-11-25 05:00:00 -- -- -- -- -- -- -- -- --
2020-11-25 04:00:00 -- -- -- -- -- -- -- -- --
2020-11-25 03:00:00 -- -- -- -- -- -- -- -- --
2020-11-25 02:00:00 -- -- -- -- -- -- -- -- --
2020-11-25 01:00:00 -- -- -- -- -- -- -- -- --
2020-11-25 00:00:00 -- -- -- -- -- -- -- -- --
2020-11-24 23:00:00 -- -- -- -- -- -- -- -- --
2020-11-24 22:00:00 -- -- -- -- -- -- -- -- --
2020-11-24 21:00:00 -- -- -- -- -- -- -- -- --
2020-11-24 20:00:00 -- -- -- -- -- -- -- -- --
2020-11-24 19:00:00 -- -- -- -- -- -- -- -- --
2020-11-24 18:00:00 -- -- -- -- -- -- -- -- --
2020-11-24 17:00:00 -- -- -- -- -- -- -- -- --
2020-11-24 16:00:00 -- -- -- -- -- -- -- -- --
2020-11-24 15:00:00 -- -- -- -- -- -- -- -- --
2020-11-24 14:00:00 -- -- -- -- -- -- -- -- --
2020-11-24 13:00:00 -- -- -- -- -- -- -- -- --
2020-11-24 12:00:00 -- -- -- -- -- -- -- -- --
2020-11-24 11:00:00 -- -- -- -- -- -- -- -- --
2020-11-24 10:00:00 -- -- -- -- -- -- -- -- --
2020-11-24 09:00:00 -- -- -- -- -- -- -- -- --
2020-11-24 08:00:00 -- -- -- -- -- -- -- -- --
2020-11-24 07:00:00 -- -- -- -- -- -- -- -- --
2020-11-24 06:00:00 -- -- -- -- -- -- -- -- --
2020-11-24 05:00:00 -- -- -- -- -- -- -- -- --
2020-11-24 04:00:00 -- -- -- -- -- -- -- -- --
2020-11-24 03:00:00 -- -- -- -- -- -- -- -- --
2020-11-24 02:00:00 -- -- -- -- -- -- -- -- --
2020-11-24 01:00:00 -- -- -- -- -- -- -- -- --
2020-11-24 00:00:00 -- -- -- -- -- -- -- -- --
2020-11-23 23:00:00 -- -- -- -- -- -- -- -- --
2020-11-23 22:00:00 -- -- -- -- -- -- -- -- --
2020-11-23 21:00:00 -- -- -- -- -- -- -- -- --
2020-11-23 20:00:00 -- -- -- -- -- -- -- -- --
2020-11-23 19:00:00 -- -- -- -- -- -- -- -- --
2020-11-23 18:00:00 -- -- -- -- -- -- -- -- --
2020-11-23 17:00:00 14.3 5 Sur 8 Sur 0 901.8 -- 34
2020-11-23 16:00:00 16.6 6 Oeste 12 Noroeste 0 901.8 -- 32
2020-11-23 15:00:00 16 8 Noroeste 16 Noroeste 0 902.1 -- 38
2020-11-23 14:00:00 15.6 7 Oeste 14 Oeste 0 902.5 -- 38
2020-11-23 13:00:00 14.4 6 Noroeste 10 Oeste 0 903.1 -- 40
2020-11-23 12:00:00 11.8 0 Calma 7 Sur 0 903.8 -- 51
2020-11-23 11:00:00 6.9 3 Sudeste 8 Este 0 904.2 -- 60
2020-11-23 10:00:00 1.9 2 Sudeste 8 Sudeste 0 904.3 -- 78
2020-11-23 09:00:00 -1.9 4 Sudeste 14 Sur 0 904 -- 89
2020-11-23 08:00:00 -2.3 6 Sudeste 14 Sudeste 0 903.8 -- 90
2020-11-23 07:00:00 -2.1 4 Sudeste 15 Sur 0 903.5 -- 91
2020-11-23 06:00:00 -2.2 4 Sudeste 19 Sur 0 903.5 -- 90
2020-11-23 05:00:00 -1.7 5 Sudeste 10 Sur 0 903.6 -- 91
2020-11-23 04:00:00 -2.1 4 Este 13 Sur 0 903.9 -- 87
2020-11-23 03:00:00 -1.3 6 Este 22 Sur 0 903.8 -- 89
2020-11-23 02:00:00 -0.8 12 Sur 17 Sur 0 904 -- 89
2020-11-23 01:00:00 -0.9 0 Calma 16 Sur 0 904.2 -- 86
2020-11-23 00:00:00 0.2 6 Sur 13 Sur 0 904.2 -- 85
2020-11-22 23:00:00 0.8 4 Sudeste 12 Sur 0 904.2 -- 84
2020-11-22 22:00:00 1.6 6 Sur 13 Sur 0 904 -- 82
2020-11-22 21:00:00 3.1 -- -- -- -- -- 904.1 -- 77
2020-11-22 20:00:00 3.7 0 Calma 4 Noroeste 0 903.8 -- 70
2020-11-22 19:00:00 6.4 0 Calma 8 Noroeste 0 903.3 -- 59
2020-11-22 18:00:00 10 2 Norte -- -- -- 903 -- 48
2020-11-22 17:00:00 12.9 9 Oeste 17 Oeste 0 902.7 -- 37
2020-11-22 16:00:00 15.2 8 Oeste 22 Noroeste 0 902.6 -- 33
2020-11-22 15:00:00 15.1 10 Noroeste 21 Noroeste 0 902.7 -- 33
2020-11-22 14:00:00 14.6 7 Noroeste 16 Noroeste 0 903 -- 31
2020-11-22 13:00:00 12.9 8 Oeste 21 Oeste 0 903.6 -- 38
2020-11-22 12:00:00 11.1 14 Oeste 21 Oeste 0 904.3 -- 44
2020-11-22 11:00:00 6.8 0 Calma 4 Noroeste 0 904.6 -- 54
2020-11-22 10:00:00 2 2 Sudeste 13 Sur -- 904.5 -- 67
2020-11-22 09:00:00 -- -- -- -- -- -- -- -- --
2020-11-22 08:00:00 -- -- -- -- -- -- -- -- --
2020-11-22 07:00:00 -- -- -- -- -- -- -- -- --
2020-11-22 06:00:00 -- -- -- -- -- -- -- -- --
2020-11-22 05:00:00 -- -- -- -- -- -- -- -- --
2020-11-22 04:00:00 -- -- -- -- -- -- -- -- --
2020-11-22 03:00:00 -- -- -- -- -- -- -- -- --
2020-11-22 02:00:00 -- -- -- -- -- -- -- -- --
2020-11-22 01:00:00 -- -- -- -- -- -- -- -- --
2020-11-22 00:00:00 -- -- -- -- -- -- -- -- --
2020-11-21 23:00:00 -- -- -- -- -- -- -- -- --
2020-11-21 22:00:00 3.5 7 Sudeste -- -- -- 904.1 -- 57
2020-11-21 21:00:00 5.2 12 Sudeste 17 Sudeste 0 904.2 -- 49
2020-11-21 20:00:00 6.8 10 Sudeste 16 Sudeste 0 904 -- 48
2020-11-21 19:00:00 8.5 2 Este 17 Sur 0 903.6 -- 46
2020-11-21 18:00:00 11.4 10 Sur 17 Sur 0 903 -- 37
2020-11-21 17:00:00 15.1 6 Sur 16 Sudeste 0 902.5 -- 24
2020-11-21 16:00:00 17.1 6 Sur 16 Sur 0 902.7 -- 18
2020-11-21 15:00:00 17.3 9 Sur 17 Sur 0 902.7 -- 17
2020-11-21 14:00:00 16.9 4 Sudeste 12 Nordeste 0 902.8 -- 16
2020-11-21 13:00:00 15.1 6 Nordeste 11 Este 0 903.5 -- 23
2020-11-21 12:00:00 12.5 3 Nordeste 7 Nordeste 0 904.3 -- 31
2020-11-21 11:00:00 9.2 2 Sudeste 5 Sudoeste 0 904.3 -- 38
2020-11-21 10:00:00 4 2 Oeste 19 Sur 0 904.2 -- 51
2020-11-21 09:00:00 -0.8 2 Oeste 15 Sur 0 904 -- 68
2020-11-21 08:00:00 0.2 6 Sur 12 Sur 0 903.5 -- 61
2020-11-21 07:00:00 1.5 3 Oeste 22 Sur 0 903.1 -- 54
2020-11-21 06:00:00 2 4 Norte 10 Noroeste 0 903.1 -- 55
2020-11-21 05:00:00 1.4 4 Sudoeste 16 Este 0 903.4 -- 60
2020-11-21 04:00:00 2.8 2 Noroeste 14 Noroeste 0 904 -- 54
2020-11-21 03:00:00 6.8 8 Sudoeste 25 Sur 0 904 -- 28
2020-11-21 02:00:00 6.8 15 Sur 40 Este 0 904.6 -- 29
2020-11-21 01:00:00 8.4 21 Nordeste 46 Este 0 904.8 -- 26
2020-11-21 00:00:00 8.3 29 Nordeste 50 Este 0 905.4 -- 29
2020-11-20 23:00:00 0.6 10 Noroeste 17 Noroeste 0 905.8 -- 77
2020-11-20 22:00:00 1.7 8 Noroeste 19 Norte 0 905.8 -- 71
2020-11-20 21:00:00 6.2 12 Este 37 Este 0 905.7 -- 41
2020-11-20 20:00:00 4.4 4 Sudeste 13 Sudeste 0 906 -- 58
2020-11-20 19:00:00 7.9 5 Sudeste 27 Este 0 905.7 -- 37
2020-11-20 18:00:00 9.5 17 Este 35 Este 0 905.6 -- 38
2020-11-20 17:00:00 11.8 13 Este 37 Este 0 905.6 -- 34
2020-11-20 16:00:00 13 21 Este 35 Este 0 905.3 -- 30
2020-11-20 15:00:00 13.9 10 Este 28 Este 0 905.6 -- 26
2020-11-20 14:00:00 13.3 17 Este 29 Este 0 906 -- 25
2020-11-20 13:00:00 13.5 7 Sur 15 Sudeste 0 907 -- 25
2020-11-20 12:00:00 11.4 10 Este 22 Este 0 907.6 -- 33
2020-11-20 11:00:00 8.5 7 Sudeste 15 Sudeste 0 908 -- 46
2020-11-20 10:00:00 2.7 2 Norte 9 Nordeste 0 908.1 -- 75
2020-11-20 09:00:00 -2.2 2 Este 7 Norte 0 907.9 -- 90
2020-11-20 08:00:00 -3.3 2 Nordeste 7 Oeste 0 908 -- 92
2020-11-20 07:00:00 -3 2 Sudeste 6 Este 0 907.9 -- 91
2020-11-20 06:00:00 -2.5 0 Calma 10 Nordeste 0 908 -- 92
2020-11-20 05:00:00 -2.1 3 Norte 9 Sur 0 908.5 -- 90
2020-11-20 04:00:00 -1.4 3 Este 14 Sudeste 0 909 -- 90
2020-11-20 03:00:00 -0.8 2 Noroeste 9 Sur 0 909.1 -- 89
2020-11-20 02:00:00 0.1 3 Este 11 Sur 0 909.2 -- 85
2020-11-20 01:00:00 1.8 3 Sur 6 Sur 0 909.6 -- 87
2020-11-20 00:00:00 3.1 3 Oeste 17 Sudeste 0 909.3 -- 76
2020-11-19 23:00:00 3.8 3 Sudeste 27 Este 0 909.9 -- 80
2020-11-19 22:00:00 5.8 17 Este 26 Sudeste 0 909.7 -- 76
2020-11-19 21:00:00 5 2 Este 12 Sur 0 909.7 -- 78
2020-11-19 20:00:00 7.5 8 Sur 15 Sur 0 909.5 -- 72
2020-11-19 19:00:00 8.7 9 Sur 19 Sudoeste 0 909.3 -- 68
2020-11-19 18:00:00 11.1 8 Norte 28 Nordeste 0 909.3 -- 59
2020-11-19 17:00:00 13.8 10 Norte 31 Nordeste 0 909.1 -- 56
2020-11-19 16:00:00 15.9 12 Norte 23 Norte 0 908.6 -- 51
2020-11-19 15:00:00 17.6 8 Oeste 19 Noroeste 0 908.3 -- 46
2020-11-19 14:00:00 16.6 13 Nordeste 26 Noroeste 0 908.8 -- 48
2020-11-19 13:00:00 16.9 6 Oeste 17 Oeste 0 909.3 -- 54
2020-11-19 12:00:00 15.5 6 Este 22 Este 0 909.9 -- 58
2020-11-19 11:00:00 12.9 4 Sudoeste 12 Sur 0 909.9 -- 71
2020-11-19 10:00:00 5.6 3 Oeste 8 Nordeste 0 909.9 -- 89
2020-11-19 09:00:00 0.6 2 Norte 6 Nordeste 0 909.2 -- 94
2020-11-19 08:00:00 -0.6 3 Noroeste 9 Este 0 908.2 -- 92
2020-11-19 07:00:00 0 3 Sudeste 10 Sur 0 908.2 -- 92
2020-11-19 06:00:00 1 4 Sudeste 10 Sur 0 907.5 -- 93
2020-11-19 05:00:00 0.7 2 Oeste 5 Sudoeste 0 907.2 -- 93
2020-11-19 04:00:00 0.8 0 Calma 4 Sudeste 0 907.1 -- 93
2020-11-19 03:00:00 0.9 0 Calma 4 Sur 0 907 -- 91
2020-11-19 02:00:00 2.1 2 Sudeste 10 Sur 0 906.8 -- 91
2020-11-19 01:00:00 2.4 2 Sudoeste 8 Sur 0 907.3 -- 90
2020-11-19 00:00:00 3.5 0 Calma 12 Sudeste 0 907 -- 89
2020-11-18 23:00:00 4.4 4 Sudeste 9 Sudeste 0 906.9 -- 90
2020-11-18 22:00:00 5.4 3 Sudeste 7 Sur 0 906.6 -- 88
2020-11-18 21:00:00 6.5 2 Sudeste 9 Sudeste 0 906.1 -- 85
2020-11-18 20:00:00 7.7 2 Sur 6 Sudeste 0 905.6 -- 80
2020-11-18 19:00:00 10.3 0 Calma 12 Sudoeste 0 905.1 -- 70
2020-11-18 18:00:00 14.2 8 Sudoeste 13 Oeste 0 904.6 -- 55
2020-11-18 17:00:00 17.3 5 Oeste 19 Norte 0 904.3 -- 42
2020-11-18 16:00:00 19 9 Oeste 16 Noroeste 0 904.2 -- 41
2020-11-18 15:00:00 18.9 8 Noroeste 17 Noroeste 0 904.2 -- 40
2020-11-18 14:00:00 18.2 7 Oeste 19 Noroeste 0 904.5 -- 45
2020-11-18 13:00:00 17.2 8 Oeste 16 Sudoeste 0 905 -- 48
2020-11-18 12:00:00 15.3 6 Oeste 51 Sudoeste 0 905.3 -- 56
2020-11-18 11:00:00 10.4 2 Este 13 Sur 0 905.4 -- 70
2020-11-18 10:00:00 6 0 Calma -- -- 0 905.3 -- 79
2020-11-18 09:00:00 1.4 3 Sudeste 17 Sur 0 905 -- 92
2020-11-18 08:00:00 0.8 5 Sur 12 Sudeste 0 904.5 -- 91
2020-11-18 07:00:00 1.1 5 Sur 15 Sur 0 904.3 -- 91
2020-11-18 06:00:00 1.4 10 Sur 17 Sur 0 904.1 -- 90
2020-11-18 05:00:00 1.2 7 Sudeste 16 Sur 0 904 -- 90
2020-11-18 04:00:00 1.5 5 Sudeste 18 Sur 0 904 -- 89
2020-11-18 03:00:00 1.5 7 Sudeste 16 Sur 0 903.9 -- 90
2020-11-18 02:00:00 2.5 12 Sur 20 Sur 0 904.2 -- 91
2020-11-18 01:00:00 2.6 9 Sur 19 Sur 0 904.4 -- 89
2020-11-18 00:00:00 2.9 10 Sur 17 Sur 0 904.5 -- 89
2020-11-17 23:00:00 3.4 11 Sur 17 Sur 0 904.5 -- 89
2020-11-17 22:00:00 4.7 6 Sudeste 21 Sudeste 0 904.3 -- 87
2020-11-17 21:00:00 5.6 8 Sur 13 Sur 0 904.1 -- 85
2020-11-17 20:00:00 6.9 8 Sur 13 Sur 0 904 -- 81
2020-11-17 19:00:00 9.1 3 Sudeste 14 Sur 0 903.4 -- 72
2020-11-17 18:00:00 12.6 9 Sur 13 Sur 0 903 -- 55
2020-11-17 17:00:00 17.7 4 Oeste 9 Oeste 0 902.9 -- 36
2020-11-17 16:00:00 18.6 5 Noroeste 13 Noroeste 0 902.8 -- 33
2020-11-17 15:00:00 17.9 5 Noroeste 15 Noroeste 0 903 -- 34
2020-11-17 14:00:00 17.1 8 Oeste 15 Noroeste 0 903.2 -- 30
2020-11-17 13:00:00 16.2 8 Oeste 15 Oeste 0 903.6 -- 28
2020-11-17 12:00:00 13 2 Noroeste 6 Norte 0 904.4 -- 62
2020-11-17 11:00:00 8.2 0 Calma 10 Sur 0 904.4 -- 76
2020-11-17 10:00:00 3.2 5 Sudeste 12 Sur 0 904.4 -- 88
2020-11-17 09:00:00 0.1 3 Sudeste 8 Este 0 904.1 -- 93
2020-11-17 08:00:00 -0.1 4 Sudeste 14 Sur 0 904 -- 93
2020-11-17 07:00:00 -0.1 4 Sudeste 8 Sudeste 0 903.6 -- 94
2020-11-17 06:00:00 -0.1 4 Este 7 Sudeste 0 903.4 -- 94
2020-11-17 05:00:00 0.1 2 Sudeste 14 Sur 0 903.5 -- 94
2020-11-17 04:00:00 0.2 3 Sudeste 18 Sudeste 0 903.5 -- 94
2020-11-17 03:00:00 1.2 3 Sur 14 Este 0 903.4 -- 94
2020-11-17 02:00:00 1.7 2 Sudeste 11 Sur 0 903.7 -- 93
2020-11-17 01:00:00 2.3 4 Sudeste 7 Sur 0 903.7 -- 93
2020-11-17 00:00:00 3.1 0 Calma 8 Sudeste 0 904 -- 92
2020-11-16 23:00:00 3.3 2 Sudeste 6 Sur 0 904.1 -- 91
2020-11-16 22:00:00 4.3 4 Sur 6 Sur 0 903.8 -- 91
2020-11-16 21:00:00 5.5 4 Sudeste 9 Sur 0 903.3 -- 89
2020-11-16 20:00:00 6 2 Norte 6 Este 0 903.1 -- 83
2020-11-16 19:00:00 8.6 0 Calma 13 Oeste 0 902.5 -- 78
2020-11-16 18:00:00 10.3 9 Oeste 17 Oeste 0 902.2 -- 71
2020-11-16 17:00:00 12.1 9 Oeste 23 Noroeste 0 901.9 -- 64
2020-11-16 16:00:00 13.8 10 Noroeste 78 Nordeste 0 901.6 -- 57
2020-11-16 15:00:00 14.2 12 Noroeste 21 Oeste 0 901.3 -- 56
2020-11-16 14:00:00 14.3 10 Noroeste 23 Noroeste 0 901.5 -- 55
2020-11-16 13:00:00 13.4 10 Oeste 23 Noroeste 0 901.9 -- 60
2020-11-16 12:00:00 12.8 12 Oeste 21 Oeste 0 901.9 -- 66
2020-11-16 11:00:00 11.1 8 Noroeste 13 Oeste 0 901.8 -- 82
2020-11-16 10:00:00 9.7 6 Noroeste 13 Oeste 0 901.1 -- 91
2020-11-16 09:00:00 8.5 0 Calma 19 Oeste 0 901 -- 92
2020-11-16 08:00:00 8.9 4 Oeste 13 Oeste 0 900.1 -- 92
2020-11-16 07:00:00 9.4 6 Oeste 16 Oeste 0 899.7 -- 91
2020-11-16 06:00:00 10 8 Oeste 20 Oeste 0 899.4 -- 90
2020-11-16 05:00:00 10.5 7 Noroeste 22 Oeste 0 899.3 -- 91
2020-11-16 04:00:00 11.1 13 Oeste 25 Oeste 0 898.9 -- 90
2020-11-16 03:00:00 11.3 13 Oeste 26 Noroeste 0 899.1 -- 90
2020-11-16 02:00:00 11.6 8 Oeste 27 Oeste 0.2 898.7 -- 90
2020-11-16 01:00:00 11.9 13 Oeste 26 Oeste 0 899 -- 88
2020-11-16 00:00:00 12.1 13 Oeste 27 Oeste 0 898.9 -- 89
2020-11-15 23:00:00 12 12 Oeste 27 Oeste 0.6 898.8 -- 90
2020-11-15 22:00:00 12.1 11 Oeste 33 Oeste 1 898.2 -- 90
2020-11-15 21:00:00 12.3 14 Oeste 34 Noroeste 0.2 897.8 -- 88
2020-11-15 20:00:00 12.5 11 Oeste 32 Oeste 0 897.5 -- 87
2020-11-15 19:00:00 12.5 10 Oeste 28 Oeste 0.8 897.1 -- 87
2020-11-15 18:00:00 12.8 11 Oeste 28 Oeste 0.2 897 -- 86
2020-11-15 17:00:00 13 13 Oeste 28 Oeste 0.4 897 -- 84
2020-11-15 16:00:00 13.3 12 Oeste 30 Oeste 0.8 896.6 -- 83
2020-11-15 15:00:00 13.6 10 Oeste 40 Sudoeste 0 896.5 -- 81
2020-11-15 14:00:00 13.2 12 Oeste 29 Oeste 0.2 896.6 -- 83
2020-11-15 13:00:00 13.3 15 Oeste 39 Oeste 0 896.9 -- 79
2020-11-15 12:00:00 13.6 19 Oeste 38 Oeste 0 897.4 -- 79
2020-11-15 11:00:00 12.4 15 Oeste 36 Sudoeste 0 897.5 -- 83
2020-11-15 10:00:00 11.4 9 Noroeste 21 Sudoeste 0 897.4 -- 86
2020-11-15 09:00:00 11 9 Oeste 28 Oeste 0 897.5 -- 83
2020-11-15 08:00:00 11.1 12 Oeste 31 Sudoeste 0 896.8 -- 82
2020-11-15 07:00:00 10.4 6 Sudoeste 18 Oeste 0 896.4 -- 83
2020-11-15 06:00:00 10 3 Oeste 19 Noroeste 0 896.7 -- 84
2020-11-15 05:00:00 9.8 2 Sudoeste 7 Oeste 0 896.7 -- 86
2020-11-15 04:00:00 9.9 2 Noroeste 15 Sudoeste 0 897.1 -- 87
2020-11-15 03:00:00 10.1 10 Oeste 22 Oeste 0 897.4 -- 87
2020-11-15 02:00:00 10.1 9 Sudoeste 27 Oeste 0 897.1 -- 85
2020-11-15 01:00:00 8.3 3 Sudoeste 11 Sudoeste 0 897.9 -- 90
2020-11-15 00:00:00 7.6 0 Calma 6 Sur 0 898 -- 87
2020-11-14 23:00:00 8.2 2 Sudeste 13 Sur 0 898.2 -- 85
2020-11-14 22:00:00 8.5 3 Sudeste 10 Sudeste 0 897.8 -- 83
2020-11-14 21:00:00 8.3 5 Sur 12 Sur 0 898 -- 84
2020-11-14 20:00:00 8.4 4 Sur 11 Sur 0 897.4 -- 81
2020-11-14 19:00:00 9.4 6 Sur 9 Sur 0 897.2 -- 76
2020-11-14 18:00:00 11 4 Sudeste 14 Sur 0 896.9 -- 69
2020-11-14 17:00:00 12.8 3 Sudeste 13 Sudeste 0 896.7 -- 61
2020-11-14 16:00:00 12.7 6 Sur 15 Sur 0 896.5 -- 61
2020-11-14 15:00:00 12.8 6 Sudeste 15 Sudeste 0 896.6 -- 64
2020-11-14 14:00:00 12.4 9 Sudoeste 18 Sudoeste 0 897.1 -- 62
2020-11-14 13:00:00 12.1 6 Sudeste 21 Sur 0 897.7 -- 64
2020-11-14 12:00:00 9.8 3 Norte 6 Sur 0 898.3 -- 79
2020-11-14 11:00:00 5.7 2 Sudeste 13 Sur 0 898.2 -- 89
2020-11-14 10:00:00 3.6 5 Sur 12 Sur 0 898.1 -- 90
2020-11-14 09:00:00 1.6 4 Sudeste 15 Sudeste 0 898.2 -- 92
2020-11-14 08:00:00 1 5 Sudeste 13 Sur 0 897.5 -- 92
2020-11-14 07:00:00 0.9 9 Sur 19 Sur 0 897.3 -- 93
2020-11-14 06:00:00 2.1 8 Sur 14 Sur 0 897.1 -- 92
2020-11-14 05:00:00 1.6 13 Sur 18 Sur 0 897.2 -- 91
2020-11-14 04:00:00 2.6 3 Este 13 Sur 0 897.3 -- 90
2020-11-14 03:00:00 2.9 8 Sur 15 Sur 0 897.7 -- 91
2020-11-14 02:00:00 2.4 2 Sudeste 10 Sur 0 897.9 -- 86
2020-11-14 01:00:00 3.9 6 Sur 14 Sur 0 898 -- 87
2020-11-14 00:00:00 3.2 6 Sur 13 Sur 0 898.3 -- 86
2020-11-13 23:00:00 4.1 5 Sudeste 11 Sudeste 0 898.4 -- 85
2020-11-13 22:00:00 5.7 7 Sudeste 15 Sudeste 0 898.1 -- 81
2020-11-13 21:00:00 7 6 Sudeste 17 Sudeste 0 898.1 -- 75
2020-11-13 20:00:00 6.6 5 Sudeste 10 Sur 0 897.9 -- 76
2020-11-13 19:00:00 8.3 4 Sudeste 11 Sur 0 897.4 -- 69
2020-11-13 18:00:00 10.9 8 Sur 10 Sur 0 896.9 -- 59
2020-11-13 17:00:00 14.8 6 Sur 14 Sur 0 897 -- 44
2020-11-13 16:00:00 15.4 6 Sudeste 14 Sudoeste 0 896.8 -- 40
2020-11-13 15:00:00 15.6 7 Sudoeste 18 Sudoeste 0 896.9 -- 40
2020-11-13 14:00:00 15.7 6 Sur 18 Sudeste 0 897.3 -- 41
2020-11-13 13:00:00 15 7 Sur 18 Sur 0 897.8 -- 44
2020-11-13 12:00:00 13.8 7 Sur 15 Sur 0 898.2 -- 51
2020-11-13 11:00:00 11 4 Este 8 Este 0 898.6 -- 63
2020-11-13 10:00:00 7.3 0 Calma 3 Sur 0 898.8 -- 78
2020-11-13 09:00:00 4.8 6 Noroeste 13 Sur 0 898.3 -- 86
2020-11-13 08:00:00 5 7 Sur 14 Sur 0 897.8 -- 86
2020-11-13 07:00:00 6.1 3 Sudeste 15 Este 0 897.6 -- 80
2020-11-13 06:00:00 6.1 5 Sudeste 10 Sudeste 0 897.3 -- 82
2020-11-13 05:00:00 6.1 4 Sur 10 Sur 0 897.4 -- 82
2020-11-13 04:00:00 6.8 5 Sur 12 Sur 0 897.5 -- 79
2020-11-13 03:00:00 7.3 6 Sudeste 11 Este 0 897.9 -- 75
2020-11-13 02:00:00 7.5 4 Este 15 Sudeste 0 897.8 -- 75
2020-11-13 01:00:00 8.6 11 Sudeste 18 Este 0 898.4 -- 72
2020-11-13 00:00:00 8.3 11 Este 16 Este 0 898.3 -- 78
2020-11-12 23:00:00 7.5 5 Este 14 Sur 0 898.6 -- 81
2020-11-12 22:00:00 7.9 9 Sur 22 Sur 0 898.5 -- 79
2020-11-12 21:00:00 7.4 3 Sur 14 Sur 0 898.4 -- 78
2020-11-12 20:00:00 8.1 6 Sur 14 Sur 0 898 -- 76
2020-11-12 19:00:00 9.7 6 Sudeste 13 Sudeste 0 898.3 -- 71
2020-11-12 18:00:00 12.2 6 Sur 15 Sur 0 898 -- 64
2020-11-12 17:00:00 15.3 6 Sur 16 Sur 0 897.9 -- 55
2020-11-12 16:00:00 16.7 3 Sur 8 Oeste 0 897.7 -- 45
2020-11-12 15:00:00 16.8 5 Oeste 12 Norte 0 898.1 -- 45
2020-11-12 14:00:00 15.6 6 Noroeste 15 Noroeste 0 898.7 -- 46
2020-11-12 13:00:00 13.9 10 Noroeste 16 Noroeste 0 899.6 -- 52
2020-11-12 12:00:00 12.5 2 Este 6 Nordeste 0 900.4 -- 67
2020-11-12 11:00:00 10.2 2 Norte 7 Sudeste 0 900.5 -- 75
2020-11-12 10:00:00 6.3 0 Calma 14 Sudoeste 0 900.7 -- 84
2020-11-12 09:00:00 2.4 0 Calma 6 Sur 0 900.6 -- 93
2020-11-12 08:00:00 2 2 Sudeste 6 Sudeste 0 900.2 -- 91
2020-11-12 07:00:00 3 5 Sudeste 14 Sur 0 900.1 -- 91
2020-11-12 06:00:00 2.9 4 Sur 13 Sur 0 900.2 -- 91
2020-11-12 05:00:00 3.3 9 Sur 14 Sur 0 900.2 -- 91
2020-11-12 04:00:00 2.9 2 Sudoeste 7 Sur 0 900.6 -- 90
2020-11-12 03:00:00 3.7 3 Sur 7 Sur 0 901 -- 90
2020-11-12 02:00:00 3.7 2 Sur 10 Sudeste 0 901 -- 89
2020-11-12 01:00:00 3.6 4 Este 10 Este 0 901.3 -- 90
2020-11-12 00:00:00 4.2 2 Sur 20 Sur 0 901.4 -- 88
2020-11-11 23:00:00 3.9 2 Norte 13 Sur 0 901.2 -- 88
2020-11-11 22:00:00 4.4 0 Calma 11 Sur 0 900.8 -- 86
2020-11-11 21:00:00 5.8 9 Sur 15 Sudoeste 0 900.9 -- 84
2020-11-11 20:00:00 6.2 2 Sudoeste 9 Sudoeste 0 900.9 -- 83
2020-11-11 19:00:00 8.2 4 Oeste 16 Oeste 0 900.7 -- 77
2020-11-11 18:00:00 10.2 13 Oeste 18 Oeste 0 900.2 -- 65
2020-11-11 17:00:00 12.2 9 Oeste 23 Sudoeste 0 900.2 -- 51
2020-11-11 16:00:00 14.2 13 Oeste 23 Oeste 0 899.8 -- 43
2020-11-11 15:00:00 13.7 13 Oeste 26 Sudoeste 0 899.9 -- 46
2020-11-11 14:00:00 14.4 12 Sudoeste 27 Oeste 0 899.9 -- 40
2020-11-11 13:00:00 13.8 11 Sudoeste 25 Oeste 0 900.5 -- 46
2020-11-11 12:00:00 12.5 5 Sudeste 16 Sudeste 0 900.6 -- 59
2020-11-11 11:00:00 10.3 3 Sudeste 6 Sudeste 0 901.5 -- 75
2020-11-11 10:00:00 4.8 4 Sur 17 Sur 0 901.7 -- 89
2020-11-11 09:00:00 1.5 7 Sur 17 Sur 0 901.9 -- 93
2020-11-11 08:00:00 -0.6 12 Sur 17 Sur 0 901.9 -- 94
2020-11-11 07:00:00 0.3 8 Sur 15 Sur 0 902.1 -- 94
2020-11-11 06:00:00 0 10 Sur 15 Sur 0 902.3 -- 94
2020-11-11 05:00:00 -0.4 14 Sur 19 Sur 0 902.3 -- 94
2020-11-11 04:00:00 0.4 10 Sur 16 Sur 0 902.7 -- 95
2020-11-11 03:00:00 0.7 10 Sur 15 Sur 0 903.5 -- 95
2020-11-11 02:00:00 0.6 8 Sur 15 Sur 0 903.8 -- 94
2020-11-11 01:00:00 1 11 Sur 22 Sur 0 904 -- 94
2020-11-11 00:00:00 1.6 4 Sur 13 Sur 0 904.2 -- 93
2020-11-10 23:00:00 2.7 3 Sudeste 9 Sur 0 904.3 -- 92
2020-11-10 22:00:00 3.3 2 Sudeste 5 Sur 0 904.1 -- 91
2020-11-10 21:00:00 4.1 0 Calma 7 Sur 0 903.9 -- 88
2020-11-10 20:00:00 6.1 5 Sudeste 9 Oeste 0 903.7 -- 87
2020-11-10 19:00:00 8 3 Noroeste 19 Oeste 0 903.3 -- 81
2020-11-10 18:00:00 9.7 10 Oeste 23 Oeste 0 903.6 -- 75
2020-11-10 17:00:00 13.1 9 Oeste 18 Oeste 0 903.3 -- 56
2020-11-10 16:00:00 14.3 8 Oeste 17 Noroeste 0 903 -- 51
2020-11-10 15:00:00 13.7 6 Noroeste 14 Noroeste 0 903 -- 52
2020-11-10 14:00:00 12 8 Noroeste 19 Oeste 0 903.6 -- 66
2020-11-10 13:00:00 11 11 Noroeste 22 Noroeste 0 904 -- 74
2020-11-10 12:00:00 9.7 8 Noroeste 15 Noroeste 0 904.5 -- 85
2020-11-10 11:00:00 6.3 2 Norte 16 Este 0 904.2 -- 92
2020-11-10 10:00:00 4.9 0 Calma 8 Este 0 904.3 -- 90
2020-11-10 09:00:00 3.6 0 Calma 8 Sur 0 903.7 -- 93
2020-11-10 08:00:00 2.7 4 Sudeste 8 Este 0 903.3 -- 94
2020-11-10 07:00:00 2.4 0 Calma 6 Sur 0 903 -- 94
2020-11-10 06:00:00 1.9 2 Este 5 Sudeste 0 902.8 -- 94
2020-11-10 05:00:00 0.9 0 Calma 10 Sur 0 902.6 -- 94
2020-11-10 04:00:00 1.3 4 Sudeste 9 Sudeste 0 902.4 -- 94
2020-11-10 03:00:00 1.6 2 Este 10 Este 0 902.4 -- 94
2020-11-10 02:00:00 1.8 4 Sudeste 13 Sur 0 902.4 -- 94
2020-11-10 01:00:00 2 6 Sur 13 Sur 0 902.4 -- 94
2020-11-10 00:00:00 2 2 Sudeste 9 Sudeste 0 902.3 -- 94
2020-11-09 23:00:00 2.8 4 Sur 11 Sur 0 902.1 -- 93
2020-11-09 22:00:00 3.4 4 Sur 9 Sur 0 901.9 -- 92
2020-11-09 21:00:00 4.4 0 Calma 8 Este 0 901.7 -- 91
2020-11-09 20:00:00 5.7 0 Calma 4 Nordeste 0 901.5 -- 90
2020-11-09 19:00:00 6.6 3 Sudoeste 5 Sudoeste 0 901.1 -- 87
2020-11-09 18:00:00 8.6 0 Calma 4 Sudoeste 0 900.3 -- 80
2020-11-09 17:00:00 10 4 Noroeste 13 Este 0 900.1 -- 78
2020-11-09 16:00:00 11.5 6 Noroeste 14 Noroeste 0 899.8 -- 75
2020-11-09 15:00:00 10.4 8 Noroeste 14 Noroeste 0.2 899.7 -- 83
2020-11-09 14:00:00 9.7 7 Norte 33 Noroeste 0.4 899.6 -- 85
2020-11-09 13:00:00 11.4 12 Sur 20 Sur 0 899.5 -- 70
2020-11-09 12:00:00 11.3 6 Sur 18 Sudoeste 0 899.9 -- 71
2020-11-09 11:00:00 11 6 Sur 12 Sudoeste 0 899.7 -- 72
2020-11-09 10:00:00 8.2 6 Sur 9 Sur 0 899.7 -- 86
2020-11-09 09:00:00 6.8 4 Sur 9 Sur 0 899.1 -- 90
2020-11-09 08:00:00 6.1 10 Sur 13 Sur 0 898.4 -- 90
2020-11-09 07:00:00 6 5 Sur 11 Sur 0 898.1 -- 90
2020-11-09 06:00:00 5.7 5 Sudeste 13 Sur 0 898 -- 90
2020-11-09 05:00:00 5.2 7 Sur 11 Sur 0 897.6 -- 90
2020-11-09 04:00:00 4.9 12 Sur 17 Sudeste 0 897.6 -- 90
2020-11-09 03:00:00 5.1 9 Este 15 Sur 0 898.1 -- 91
2020-11-09 02:00:00 5.1 7 Sur 13 Sur 0 898.3 -- 90
2020-11-09 01:00:00 5.6 5 Sudeste 13 Sur 0 898.3 -- 89
2020-11-09 00:00:00 6.4 6 Sudeste 20 Sur 0 898.5 -- 88
2020-11-08 23:00:00 7.3 3 Sur 6 Oeste 0 898.7 -- 85
2020-11-08 22:00:00 7.5 5 Sur 12 Sur 0 898.8 -- 83
2020-11-08 21:00:00 7.9 6 Sudeste 12 Sudeste 0 898.6 -- 79
2020-11-08 20:00:00 8.8 3 Sudeste 17 Sudeste 0 898.1 -- 76
2020-11-08 19:00:00 9.6 4 Sudeste 14 Este 0 898.1 -- 77
2020-11-08 18:00:00 11.3 4 Sudeste 20 Este 0 897.7 -- 71
2020-11-08 17:00:00 12.8 4 Sudeste 25 Este 0 897.8 -- 68
2020-11-08 16:00:00 13.5 10 Sudeste 24 Este 0 897.6 -- 63
2020-11-08 15:00:00 13.5 14 Este 28 Este 0 897.8 -- 64
2020-11-08 14:00:00 12.6 12 Este 24 Este 0 898.1 -- 69
2020-11-08 13:00:00 11 12 Este 22 Sudeste 0 898.8 -- 73
2020-11-08 12:00:00 10.2 13 Este 24 Este 0 899.6 -- 78
2020-11-08 11:00:00 7.4 5 Sur 9 Sur 0 899.8 -- 87
2020-11-08 10:00:00 6.6 6 Sur 14 Sudeste 0 899.5 -- 89
2020-11-08 09:00:00 4.9 8 Sudeste 13 Sudeste 0 899.4 -- 93
2020-11-08 08:00:00 4.7 6 Sudeste 12 Sudeste 0 899.2 -- 92
2020-11-08 07:00:00 5.3 5 Sudeste 13 Sur 0 899 -- 92
2020-11-08 06:00:00 5.8 9 Sur 13 Sur 0 899.2 -- 91
2020-11-08 05:00:00 6.7 6 Este 13 Sur 0 899.2 -- 92
2020-11-08 04:00:00 5.9 8 Sur 13 Sur 0 899.6 -- 92
2020-11-08 03:00:00 5.9 4 Sudeste 8 Sur 0 899.8 -- 93
2020-11-08 02:00:00 5.1 7 Sur 14 Sur 0 899.9 -- 93
2020-11-08 01:00:00 5.6 6 Sudeste 12 Sur 0 900 -- 92
2020-11-08 00:00:00 6.6 2 Sur 13 Sur 0 899.9 -- 91
2020-11-07 23:00:00 7.1 12 Sur 15 Sur 0 899.7 -- 90
2020-11-07 22:00:00 8.5 8 Sudoeste 19 Oeste 0 899.4 -- 86
2020-11-07 21:00:00 9.3 7 Oeste 17 Oeste 0 899.1 -- 86
2020-11-07 20:00:00 9.5 6 Oeste 16 Sur 0 898.1 -- 86
2020-11-07 19:00:00 9.2 3 Sudoeste 12 Sudoeste 0 897.5 -- 88
2020-11-07 18:00:00 9.1 6 Oeste 18 Sudoeste 0 896.9 -- 84
2020-11-07 17:00:00 10.1 8 Oeste 30 Sudoeste 0.2 896.5 -- 84
2020-11-07 16:00:00 10.6 11 Oeste 31 Oeste 0 896 -- 83
2020-11-07 15:00:00 10.1 11 Oeste 27 Oeste 2.4 895.2 -- 86
2020-11-07 14:00:00 9.6 11 Oeste 30 Sudoeste 2.8 895 -- 86
2020-11-07 13:00:00 10.5 11 Sudoeste 27 Sudoeste 0.2 894.6 -- 84
2020-11-07 12:00:00 10.2 4 Sudeste 15 Sudeste 1.4 894.5 -- 87
2020-11-07 11:00:00 10 6 Sudeste 13 Sudeste 0 894.1 -- 84
2020-11-07 10:00:00 9.7 6 Este 18 Sudeste 0 892.7 -- 87
2020-11-07 09:00:00 8.9 10 Sudeste 16 Sudeste 0 892.6 -- 87
2020-11-07 08:00:00 8.5 4 Sudeste -- -- 0 891.6 -- 87
2020-11-07 07:00:00 8.9 8 Sudeste 23 Este 0 891.9 -- 89
2020-11-07 06:00:00 9 8 Este 15 Sudeste 2 892.7 -- 90
2020-11-07 05:00:00 9 4 Norte 17 Noroeste 4.4 892.7 -- 90
2020-11-07 04:00:00 10.7 3 Oeste 18 Sudeste 8.6 892.9 -- 89
2020-11-07 03:00:00 11.6 7 Sudeste 22 Sudeste 0 893.6 -- 81
2020-11-07 02:00:00 11.5 8 Sudeste 27 Sudeste 0 893.6 -- 80
2020-11-07 01:00:00 11.7 10 Sudeste 32 Este 0 894.1 -- 78
2020-11-07 00:00:00 12 12 Sudeste 38 Este 0 894.1 -- 78
2020-11-06 23:00:00 12.4 25 Sudeste 43 Este 0 894.7 -- 77
2020-11-06 22:00:00 12.6 18 Sudeste 48 Sudeste 0 895 -- 78
2020-11-06 21:00:00 12.8 24 Sudeste 54 Este 0 893.6 -- 76
2020-11-06 20:00:00 12.9 26 Sudeste 51 Este 0 894.4 -- 77
2020-11-06 19:00:00 13.1 29 Sudeste 52 Sudeste 0 894.5 -- 77
2020-11-06 18:00:00 13.4 25 Sudeste 48 Sudeste 0 894.1 -- 75
2020-11-06 17:00:00 13.6 24 Sudeste 54 Este 0 894.1 -- 75
2020-11-06 16:00:00 14 31 Sudeste 51 Este 0 894.4 -- 73
2020-11-06 15:00:00 13.8 29 Sudeste 55 Sudeste 0 895 -- 73
2020-11-06 14:00:00 13.4 22 Sudeste 61 Este 0 895.3 -- 72
2020-11-06 13:00:00 13.1 28 Sudeste 57 Sudeste 0 896.6 -- 72
2020-11-06 12:00:00 13.2 35 Este 69 Sudeste 0 897 -- 72
2020-11-06 11:00:00 12.2 31 Sudeste 57 Este 0 897.2 -0.8 76
2020-11-06 10:00:00 11.4 18 Sudeste 33 Sudeste 0 897.7 -- 78
2020-11-06 09:00:00 10.2 6 Sudeste 22 Este 0 897.8 -- 85
2020-11-06 08:00:00 9.1 10 Sudeste 24 Sudeste 0 898 -- 88
2020-11-06 07:00:00 9.2 12 Este 27 Este 0 898.1 -- 85
2020-11-06 06:00:00 9.9 14 Sudeste 31 Este 0 898.5 -- 82
2020-11-06 05:00:00 9.4 15 Sudeste 33 Este 0 897.7 -- 84
2020-11-06 04:00:00 8.8 11 Este 39 Sudeste 0 897.8 -- 85
2020-11-06 03:00:00 9.4 13 Sudeste 27 Sudeste 0 897.8 -- 83
2020-11-06 02:00:00 9.7 16 Sudeste 31 Este 0 898 -- 83
2020-11-06 01:00:00 9.7 14 Sudeste 49 Este 0 898 -- 83
2020-11-06 00:00:00 9.7 26 Sudeste 59 Sudeste 0 897.7 -- 82
2020-11-05 23:00:00 9.6 26 Sudeste 54 Sudeste 1.6 898 -- 84
2020-11-05 22:00:00 9.7 32 Este 58 Este 1 898.3 -- 84
2020-11-05 21:00:00 9.1 16 Este 42 Sudeste 0.6 898.5 -- 87
2020-11-05 20:00:00 9.5 26 Este 48 Este 0 898.3 -- 83
2020-11-05 19:00:00 10.1 25 Este 57 Sudeste 0 898.2 -- 78
2020-11-05 18:00:00 9.6 26 Este 49 Sudeste 0 897.7 -- 80
2020-11-05 17:00:00 10.4 22 Sudeste 54 Sudeste 0 898.2 -- 75
2020-11-05 16:00:00 11 26 Sudeste 55 Sudeste 0 898.4 -- 71
2020-11-05 15:00:00 11.6 21 Sudeste 51 Este 0 898.2 -- 66
2020-11-05 14:00:00 12.1 32 Sudeste 50 Sudeste 0 898.5 -- 62
2020-11-05 13:00:00 12.4 25 Sudeste 48 Este 0 899.2 -- 59
2020-11-05 12:00:00 12.2 18 Sudeste 53 Sudeste 0 899.9 -- 58
2020-11-05 11:00:00 10.2 25 Este 51 Este 0 899.6 -- 60
2020-11-05 10:00:00 9.7 19 Sudeste 47 Sudeste 0 900.1 -- 65
2020-11-05 09:00:00 8.7 20 Sudeste 48 Este 0 900 -- 71
2020-11-05 08:00:00 8.1 25 Este 46 Sudeste 0 899.1 -- 74
2020-11-05 07:00:00 7.7 30 Este 52 Este 0 899.3 -- 76
2020-11-05 06:00:00 7.7 25 Sudeste 53 Este 0 899.5 -- 74
2020-11-05 05:00:00 7.3 29 Este 59 Sudeste 0 899.4 -- 78
2020-11-05 04:00:00 7.1 22 Este 48 Sudeste 0 899.5 -- 80
2020-11-05 03:00:00 7.2 21 Este 44 Este 0 899.4 -- 79
2020-11-05 02:00:00 7.2 18 Este 37 Este 0 899.4 -- 77
2020-11-05 01:00:00 7.3 26 Sudeste 57 Sudeste 0 899.1 -- 74
2020-11-05 00:00:00 7.3 26 Este 43 Sudeste 0 899.1 -- 71